sensor_id;sensor_type;location;lat;lon;timestamp;pressure;altitude;pressure_sealevel;temperature;humidity
21300;BME280;10809;49.476;11.016;2023-02-28T00:01:57;99202.00;;;-1.87;51.94
21300;BME280;10809;49.476;11.016;2023-02-28T00:04:27;99204.59;;;-1.88;51.83
21300;BME280;10809;49.476;11.016;2023-02-28T00:06:57;99199.38;;;-1.91;51.56
21300;BME280;10809;49.476;11.016;2023-02-28T00:09:28;99206.25;;;-1.95;51.74
21300;BME280;10809;49.476;11.016;2023-02-28T00:11:58;99202.75;;;-1.98;51.67
21300;BME280;10809;49.476;11.016;2023-02-28T00:14:30;99197.53;;;-2.03;51.34
21300;BME280;10809;49.476;11.016;2023-02-28T00:17:00;99198.38;;;-2.05;51.80
21300;BME280;10809;49.476;11.016;2023-02-28T00:19:30;99199.22;;;-2.09;51.91
21300;BME280;10809;49.476;11.016;2023-02-28T00:22:01;99199.19;;;-2.12;51.51
21300;BME280;10809;49.476;11.016;2023-02-28T00:24:31;99199.16;;;-2.17;51.60
21300;BME280;10809;49.476;11.016;2023-02-28T00:27:02;99205.16;;;-2.21;51.80
21300;BME280;10809;49.476;11.016;2023-02-28T00:29:32;99194.72;;;-2.25;52.10
21300;BME280;10809;49.476;11.016;2023-02-28T00:32:03;99196.44;;;-2.29;52.07
21300;BME280;10809;49.476;11.016;2023-02-28T00:34:34;99202.44;;;-2.33;51.77
21300;BME280;10809;49.476;11.016;2023-02-28T00:37:23;99204.19;;;-2.35;52.24
21300;BME280;10809;49.476;11.016;2023-02-28T00:39:53;99199.81;;;-2.37;52.18
21300;BME280;10809;49.476;11.016;2023-02-28T00:42:30;99205.84;;;-2.40;52.28
21300;BME280;10809;49.476;11.016;2023-02-28T00:45:04;99203.25;;;-2.41;52.03
21300;BME280;10809;49.476;11.016;2023-02-28T00:47:35;99209.28;;;-2.44;52.43
21300;BME280;10809;49.476;11.016;2023-02-28T00:50:06;99210.97;;;-2.44;52.31
21300;BME280;10809;49.476;11.016;2023-02-28T00:52:36;99205.78;;;-2.47;52.09
21300;BME280;10809;49.476;11.016;2023-02-28T00:55:07;99203.16;;;-2.50;52.59
21300;BME280;10809;49.476;11.016;2023-02-28T00:57:37;99196.19;;;-2.51;52.25
21300;BME280;10809;49.476;11.016;2023-02-28T01:00:08;99184.97;;;-2.53;52.44
21300;BME280;10809;49.476;11.016;2023-02-28T01:02:39;99195.31;;;-2.55;52.53
21300;BME280;10809;49.476;11.016;2023-02-28T01:05:12;99190.94;;;-2.57;52.44
21300;BME280;10809;49.476;11.016;2023-02-28T01:07:43;99193.53;;;-2.57;52.54
21300;BME280;10809;49.476;11.016;2023-02-28T01:10:13;99184.06;;;-2.57;52.62
21300;BME280;10809;49.476;11.016;2023-02-28T01:12:47;99187.50;;;-2.58;52.72
21300;BME280;10809;49.476;11.016;2023-02-28T01:15:32;99184.03;;;-2.58;52.85
21300;BME280;10809;49.476;11.016;2023-02-28T01:18:03;99177.13;;;-2.59;52.65
21300;BME280;10809;49.476;11.016;2023-02-28T01:20:44;99180.59;;;-2.57;52.59
21300;BME280;10809;49.476;11.016;2023-02-28T01:23:20;99188.38;;;-2.57;52.45
21300;BME280;10809;49.476;11.016;2023-02-28T01:25:52;99171.97;;;-2.56;52.82
21300;BME280;10809;49.476;11.016;2023-02-28T01:28:22;99184.06;;;-2.55;52.90
21300;BME280;10809;49.476;11.016;2023-02-28T01:30:54;99183.22;;;-2.54;52.83
21300;BME280;10809;49.476;11.016;2023-02-28T01:33:27;99176.31;;;-2.52;52.61
21300;BME280;10809;49.476;11.016;2023-02-28T01:36:04;99175.44;;;-2.53;52.88
21300;BME280;10809;49.476;11.016;2023-02-28T01:38:35;99174.63;;;-2.52;53.23
21300;BME280;10809;49.476;11.016;2023-02-28T01:41:06;99172.03;;;-2.52;52.62
21300;BME280;10809;49.476;11.016;2023-02-28T01:46:16;99165.97;;;-2.52;52.65
21300;BME280;10809;49.476;11.016;2023-02-28T01:54:13;99165.94;;;-2.55;53.10
21300;BME280;10809;49.476;11.016;2023-02-28T01:56:59;99163.31;;;-2.57;52.95
21300;BME280;10809;49.476;11.016;2023-02-28T02:00:03;99164.22;;;-2.56;52.73
21300;BME280;10809;49.476;11.016;2023-02-28T02:02:45;99164.22;;;-2.56;52.78
21300;BME280;10809;49.476;11.016;2023-02-28T02:05:27;99166.78;;;-2.56;53.54
21300;BME280;10809;49.476;11.016;2023-02-28T02:08:11;99170.22;;;-2.57;52.50
21300;BME280;10809;49.476;11.016;2023-02-28T02:10:44;99164.16;;;-2.59;53.05
21300;BME280;10809;49.476;11.016;2023-02-28T02:16:28;99157.22;;;-2.62;53.19
21300;BME280;10809;49.476;11.016;2023-02-28T02:44:11;99139.78;;;-2.78;53.48
21300;BME280;10809;49.476;11.016;2023-02-28T02:46:45;99138.03;;;-2.80;53.54
21300;BME280;10809;49.476;11.016;2023-02-28T02:49:36;99143.22;;;-2.80;53.29
21300;BME280;10809;49.476;11.016;2023-02-28T02:52:10;99136.28;;;-2.81;53.91
21300;BME280;10809;49.476;11.016;2023-02-28T02:54:47;99142.38;;;-2.79;53.22
21300;BME280;10809;49.476;11.016;2023-02-28T02:57:27;99149.25;;;-2.80;53.23
21300;BME280;10809;49.476;11.016;2023-02-28T03:00:07;99147.53;;;-2.81;53.46
21300;BME280;10809;49.476;11.016;2023-02-28T03:02:40;99143.22;;;-2.80;53.67
21300;BME280;10809;49.476;11.016;2023-02-28T03:05:21;99147.53;;;-2.81;53.47
21300;BME280;10809;49.476;11.016;2023-02-28T03:07:54;99143.22;;;-2.80;53.37
21300;BME280;10809;49.476;11.016;2023-02-28T03:16:45;99150.09;;;-2.82;53.53
21300;BME280;10809;49.476;11.016;2023-02-28T03:31:12;99147.47;;;-2.87;53.62
21300;BME280;10809;49.476;11.016;2023-02-28T03:34:00;99149.19;;;-2.87;53.53
21300;BME280;10809;49.476;11.016;2023-02-28T03:36:45;99156.09;;;-2.88;53.48
21300;BME280;10809;49.476;11.016;2023-02-28T03:39:39;99157.81;;;-2.87;54.01
21300;BME280;10809;49.476;11.016;2023-02-28T03:42:19;99157.81;;;-2.88;53.62
21300;BME280;10809;49.476;11.016;2023-02-28T03:44:54;99158.69;;;-2.88;54.05
21300;BME280;10809;49.476;11.016;2023-02-28T03:50:10;99155.25;;;-2.87;54.14
21300;BME280;10809;49.476;11.016;2023-02-28T03:52:51;99156.13;;;-2.86;53.54
21300;BME280;10809;49.476;11.016;2023-02-28T03:55:24;99163.91;;;-2.85;53.98
21300;BME280;10809;49.476;11.016;2023-02-28T04:00:37;99164.72;;;-2.87;53.93
21300;BME280;10809;49.476;11.016;2023-02-28T04:03:09;99158.69;;;-2.88;54.15
21300;BME280;10809;49.476;11.016;2023-02-28T04:06:07;99163.84;;;-2.89;54.29
21300;BME280;10809;49.476;11.016;2023-02-28T04:08:49;99163.84;;;-2.89;54.09
21300;BME280;10809;49.476;11.016;2023-02-28T04:11:44;99167.28;;;-2.90;53.83
21300;BME280;10809;49.476;11.016;2023-02-28T04:14:26;99166.41;;;-2.92;54.01
21300;BME280;10809;49.476;11.016;2023-02-28T04:17:03;99168.13;;;-2.93;54.04
21300;BME280;10809;49.476;11.016;2023-02-28T04:19:36;99165.50;;;-2.94;53.92
21300;BME280;10809;49.476;11.016;2023-02-28T04:22:08;99165.50;;;-2.94;54.30
21300;BME280;10809;49.476;11.016;2023-02-28T04:24:41;99167.22;;;-2.97;54.15
21300;BME280;10809;49.476;11.016;2023-02-28T04:27:14;99162.91;;;-2.96;54.35
21300;BME280;10809;49.476;11.016;2023-02-28T04:29:46;99167.22;;;-2.97;54.18
21300;BME280;10809;49.476;11.016;2023-02-28T04:32:16;99167.22;;;-2.97;54.05
21300;BME280;10809;49.476;11.016;2023-02-28T04:34:47;99165.47;;;-2.97;54.06
21300;BME280;10809;49.476;11.016;2023-02-28T04:37:18;99166.31;;;-3.00;54.29
21300;BME280;10809;49.476;11.016;2023-02-28T04:39:51;99170.63;;;-3.01;54.70
21300;BME280;10809;49.476;11.016;2023-02-28T04:42:22;99177.53;;;-3.00;54.27
21300;BME280;10809;49.476;11.016;2023-02-28T04:44:52;99170.63;;;-3.02;54.71
21300;BME280;10809;49.476;11.016;2023-02-28T04:47:23;99165.44;;;-3.02;54.59
21300;BME280;10809;49.476;11.016;2023-02-28T04:49:59;99163.69;;;-3.02;54.45
21300;BME280;10809;49.476;11.016;2023-02-28T04:52:30;99163.69;;;-3.02;54.06
21300;BME280;10809;49.476;11.016;2023-02-28T04:55:01;99166.34;;;-2.98;54.69
21300;BME280;10809;49.476;11.016;2023-02-28T04:57:32;99169.78;;;-2.98;54.30
21300;BME280;10809;49.476;11.016;2023-02-28T05:00:05;99169.81;;;-2.97;54.66
21300;BME280;10809;49.476;11.016;2023-02-28T05:02:41;99163.75;;;-2.98;54.21
21300;BME280;10809;49.476;11.016;2023-02-28T05:05:18;99165.47;;;-2.99;54.43
21300;BME280;10809;49.476;11.016;2023-02-28T05:07:49;99171.53;;;-2.98;54.06
21300;BME280;10809;49.476;11.016;2023-02-28T05:10:19;99170.66;;;-2.99;54.29
21300;BME280;10809;49.476;11.016;2023-02-28T05:12:50;99176.72;;;-2.98;54.27
21300;BME280;10809;49.476;11.016;2023-02-28T05:15:21;99179.28;;;-2.98;54.16
21300;BME280;10809;49.476;11.016;2023-02-28T05:17:57;99178.41;;;-2.99;54.26
21300;BME280;10809;49.476;11.016;2023-02-28T05:20:28;99174.09;;;-3.00;54.89
21300;BME280;10809;49.476;11.016;2023-02-28T05:22:59;99181.88;;;-2.98;54.23
21300;BME280;10809;49.476;11.016;2023-02-28T05:25:34;99181.00;;;-2.99;54.83
21300;BME280;10809;49.476;11.016;2023-02-28T05:28:06;99182.72;;;-3.00;54.74
21300;BME280;10809;49.476;11.016;2023-02-28T05:30:37;99179.28;;;-3.00;54.82
21300;BME280;10809;49.476;11.016;2023-02-28T05:33:10;99193.06;;;-3.00;54.77
21300;BME280;10809;49.476;11.016;2023-02-28T05:35:44;99183.59;;;-2.99;54.44
21300;BME280;10809;49.476;11.016;2023-02-28T05:38:20;99187.91;;;-3.00;55.02
21300;BME280;10809;49.476;11.016;2023-02-28T05:40:51;99188.78;;;-2.99;54.35
21300;BME280;10809;49.476;11.016;2023-02-28T05:43:22;99188.75;;;-3.01;54.60
21300;BME280;10809;49.476;11.016;2023-02-28T05:45:53;99183.56;;;-3.01;54.30
21300;BME280;10809;49.476;11.016;2023-02-28T05:48:29;99187.03;;;-3.00;54.99
21300;BME280;10809;49.476;11.016;2023-02-28T05:50:59;99187.00;;;-3.02;55.01
21300;BME280;10809;49.476;11.016;2023-02-28T05:53:31;99184.41;;;-3.02;55.03
21300;BME280;10809;49.476;11.016;2023-02-28T05:56:02;99181.78;;;-3.05;54.84
21300;BME280;10809;49.476;11.016;2023-02-28T05:58:33;99182.63;;;-3.06;55.23
21300;BME280;10809;49.476;11.016;2023-02-28T06:01:31;99186.09;;;-3.07;54.81
21300;BME280;10809;49.476;11.016;2023-02-28T06:04:08;99186.91;;;-3.08;54.69
21300;BME280;10809;49.476;11.016;2023-02-28T06:06:41;99193.84;;;-3.08;54.66
21300;BME280;10809;49.476;11.016;2023-02-28T06:09:15;99193.81;;;-3.11;55.10
21300;BME280;10809;49.476;11.016;2023-02-28T06:11:46;99199.00;;;-3.11;54.92
21300;BME280;10809;49.476;11.016;2023-02-28T06:14:18;99198.09;;;-3.12;55.35
21300;BME280;10809;49.476;11.016;2023-02-28T06:16:49;99200.69;;;-3.13;54.91
21300;BME280;10809;49.476;11.016;2023-02-28T06:19:20;99199.81;;;-3.14;55.06
21300;BME280;10809;49.476;11.016;2023-02-28T06:21:53;99198.94;;;-3.14;55.32
21300;BME280;10809;49.476;11.016;2023-02-28T06:24:25;99200.63;;;-3.16;54.83
21300;BME280;10809;49.476;11.016;2023-02-28T06:26:58;99201.53;;;-3.16;54.78
21300;BME280;10809;49.476;11.016;2023-02-28T06:29:38;99204.97;;;-3.15;55.42
21300;BME280;10809;49.476;11.016;2023-02-28T06:32:16;99217.94;;;-3.14;55.38
21300;BME280;10809;49.476;11.016;2023-02-28T06:34:46;99204.97;;;-3.14;54.88
21300;BME280;10809;49.476;11.016;2023-02-28T06:37:17;99208.47;;;-3.12;55.31
21300;BME280;10809;49.476;11.016;2023-02-28T06:39:57;99215.38;;;-3.11;55.00
21300;BME280;10809;49.476;11.016;2023-02-28T06:42:31;99208.50;;;-3.09;55.28
21300;BME280;10809;49.476;11.016;2023-02-28T06:45:10;99218.91;;;-3.06;55.57
21300;BME280;10809;49.476;11.016;2023-02-28T06:47:44;99220.66;;;-3.02;55.18
21300;BME280;10809;49.476;11.016;2023-02-28T06:50:21;99218.13;;;-3.00;55.62
21300;BME280;10809;49.476;11.016;2023-02-28T06:52:51;99218.16;;;-2.97;55.66
21300;BME280;10809;49.476;11.016;2023-02-28T06:55:31;99222.53;;;-2.93;55.41
21300;BME280;10809;49.476;11.016;2023-02-28T06:58:04;99219.09;;;-2.90;55.65
21300;BME280;10809;49.476;11.016;2023-02-28T07:00:45;99209.66;;;-2.87;55.54
21300;BME280;10809;49.476;11.016;2023-02-28T07:03:16;99230.41;;;-2.84;55.73
21300;BME280;10809;49.476;11.016;2023-02-28T07:06:00;99217.47;;;-2.81;55.60
21300;BME280;10809;49.476;11.016;2023-02-28T07:08:31;99231.34;;;-2.77;55.59
21300;BME280;10809;49.476;11.016;2023-02-28T07:11:03;99233.13;;;-2.72;56.12
21300;BME280;10809;49.476;11.016;2023-02-28T07:13:37;99230.59;;;-2.69;55.59
21300;BME280;10809;49.476;11.016;2023-02-28T07:16:10;99238.44;;;-2.61;55.49
21300;BME280;10809;49.476;11.016;2023-02-28T07:18:41;99235.03;;;-2.57;55.95
21300;BME280;10809;49.476;11.016;2023-02-28T07:21:12;99230.78;;;-2.51;55.91
21300;BME280;10809;49.476;11.016;2023-02-28T07:23:45;99232.59;;;-2.44;55.56
21300;BME280;10809;49.476;11.016;2023-02-28T07:26:22;99228.28;;;-2.40;56.02
21300;BME280;10809;49.476;11.016;2023-02-28T07:28:54;99231.84;;;-2.32;55.96
21300;BME280;10809;49.476;11.016;2023-02-28T07:31:24;99235.41;;;-2.24;56.41
21300;BME280;10809;49.476;11.016;2023-02-28T07:33:55;99237.28;;;-2.07;57.38
21300;BME280;10809;49.476;11.016;2023-02-28T07:36:26;99223.69;;;-1.80;58.06
21300;BME280;10809;49.476;11.016;2023-02-28T07:38:58;99229.09;;;-1.50;57.94
21300;BME280;10809;49.476;11.016;2023-02-28T07:41:29;99223.19;;;-1.22;58.05
21300;BME280;10809;49.476;11.016;2023-02-28T07:44:00;99220.78;;;-0.89;58.57
21300;BME280;10809;49.476;11.016;2023-02-28T07:46:30;99228.72;;;-0.54;58.54
21300;BME280;10809;49.476;11.016;2023-02-28T07:49:05;99223.59;;;-0.18;58.74
21300;BME280;10809;49.476;11.016;2023-02-28T07:51:39;99222.78;;;0.22;59.43
21300;BME280;10809;49.476;11.016;2023-02-28T07:54:10;99219.25;;;0.62;58.89
21300;BME280;10809;49.476;11.016;2023-02-28T07:56:40;99216.53;;;1.00;58.15
21300;BME280;10809;49.476;11.016;2023-02-28T07:59:11;99218.16;;;1.35;58.46
21300;BME280;10809;49.476;11.016;2023-02-28T08:01:42;99215.38;;;1.67;57.52
21300;BME280;10809;49.476;11.016;2023-02-28T08:04:18;99213.47;;;1.96;57.28
21300;BME280;10809;49.476;11.016;2023-02-28T08:06:48;99213.25;;;2.23;57.31
21300;BME280;10809;49.476;11.016;2023-02-28T08:09:22;99216.47;;;2.52;56.69
21300;BME280;10809;49.476;11.016;2023-02-28T08:11:56;99211.91;;;2.75;56.50
21300;BME280;10809;49.476;11.016;2023-02-28T08:14:33;99207.38;;;2.97;55.53
21300;BME280;10809;49.476;11.016;2023-02-28T08:17:04;99202.81;;;3.12;55.71
21300;BME280;10809;49.476;11.016;2023-02-28T08:19:35;99203.50;;;3.26;55.69
21300;BME280;10809;49.476;11.016;2023-02-28T08:22:06;99210.38;;;3.38;54.76
21300;BME280;10809;49.476;11.016;2023-02-28T08:24:41;99199.78;;;3.45;54.19
21300;BME280;10809;49.476;11.016;2023-02-28T08:27:13;99208.44;;;3.50;53.71
21300;BME280;10809;49.476;11.016;2023-02-28T08:29:46;99209.28;;;3.52;52.61
21300;BME280;10809;49.476;11.016;2023-02-28T08:32:17;99215.44;;;3.50;52.83
21300;BME280;10809;49.476;11.016;2023-02-28T08:34:47;99204.09;;;3.48;52.65
21300;BME280;10809;49.476;11.016;2023-02-28T08:37:17;99206.75;;;3.46;52.78
21300;BME280;10809;49.476;11.016;2023-02-28T08:40:00;99201.50;;;3.46;52.90
21300;BME280;10809;49.476;11.016;2023-02-28T08:42:34;99201.47;;;3.49;52.94
21300;BME280;10809;49.476;11.016;2023-02-28T08:45:04;99199.72;;;3.51;52.40
21300;BME280;10809;49.476;11.016;2023-02-28T08:47:35;99206.66;;;3.52;52.44
21300;BME280;10809;49.476;11.016;2023-02-28T08:50:06;99205.81;;;3.50;52.50
21300;BME280;10809;49.476;11.016;2023-02-28T08:52:37;99210.22;;;3.48;51.70
21300;BME280;10809;49.476;11.016;2023-02-28T08:55:08;99208.50;;;3.44;51.59
21300;BME280;10809;49.476;11.016;2023-02-28T08:57:42;99207.72;;;3.41;51.54
21300;BME280;10809;49.476;11.016;2023-02-28T09:00:16;99209.47;;;3.37;51.18
21300;BME280;10809;49.476;11.016;2023-02-28T09:02:46;99192.13;;;3.30;50.58
21300;BME280;10809;49.476;11.016;2023-02-28T09:05:16;99203.56;;;3.22;50.84
21300;BME280;10809;49.476;11.016;2023-02-28T09:07:50;99212.41;;;3.13;50.92
21300;BME280;10809;49.476;11.016;2023-02-28T09:10:20;99204.63;;;3.06;50.93
21300;BME280;10809;49.476;11.016;2023-02-28T09:12:55;99217.78;;;3.01;51.23
21300;BME280;10809;49.476;11.016;2023-02-28T09:15:25;99211.69;;;2.98;50.60
21300;BME280;10809;49.476;11.016;2023-02-28T09:18:01;99208.25;;;2.94;51.15
21300;BME280;10809;49.476;11.016;2023-02-28T09:20:33;99207.41;;;2.92;51.25
21300;BME280;10809;49.476;11.016;2023-02-28T09:23:03;99208.28;;;2.91;50.94
21300;BME280;10809;49.476;11.016;2023-02-28T09:25:34;99209.16;;;2.90;50.63
21300;BME280;10809;49.476;11.016;2023-02-28T09:28:04;99209.19;;;2.87;50.49
21300;BME280;10809;49.476;11.016;2023-02-28T09:30:35;99210.94;;;2.85;50.84
21300;BME280;10809;49.476;11.016;2023-02-28T09:33:08;99211.84;;;2.84;50.71
21300;BME280;10809;49.476;11.016;2023-02-28T09:35:38;99210.97;;;2.84;50.77
21300;BME280;10809;49.476;11.016;2023-02-28T09:38:10;99206.59;;;2.86;51.02
21300;BME280;10809;49.476;11.016;2023-02-28T09:40:49;99214.44;;;2.87;50.86
21300;BME280;10809;49.476;11.016;2023-02-28T09:43:22;99208.28;;;2.90;50.73
21300;BME280;10809;49.476;11.016;2023-02-28T09:46:04;99210.00;;;2.94;50.32
21300;BME280;10809;49.476;11.016;2023-02-28T09:48:41;99213.44;;;2.96;50.29
21300;BME280;10809;49.476;11.016;2023-02-28T09:54:02;99218.66;;;2.99;49.75
21300;BME280;10809;49.476;11.016;2023-02-28T09:56:41;99213.41;;;3.00;50.17
21300;BME280;10809;49.476;11.016;2023-02-28T10:00:00;99206.44;;;3.01;50.31
21300;BME280;10809;49.476;11.016;2023-02-28T10:05:41;99210.69;;;3.08;49.92
21300;BME280;10809;49.476;11.016;2023-02-28T10:08:42;99220.28;;;3.12;49.74
21300;BME280;10809;49.476;11.016;2023-02-28T10:11:16;99209.72;;;3.18;50.11
21300;BME280;10809;49.476;11.016;2023-02-28T10:13:56;99213.16;;;3.24;50.29
21300;BME280;10809;49.476;11.016;2023-02-28T10:19:35;99217.34;;;3.36;50.09
21300;BME280;10809;49.476;11.016;2023-02-28T10:22:24;99212.97;;;3.39;49.79
21300;BME280;10809;49.476;11.016;2023-02-28T10:24:58;99212.91;;;3.42;49.50
21300;BME280;10809;49.476;11.016;2023-02-28T10:27:36;99203.31;;;3.41;49.36
21300;BME280;10809;49.476;11.016;2023-02-28T10:30:11;99211.16;;;3.41;49.15
21300;BME280;10809;49.476;11.016;2023-02-28T10:32:50;99209.41;;;3.43;49.00
21300;BME280;10809;49.476;11.016;2023-02-28T10:35:26;99199.84;;;3.42;49.24
21300;BME280;10809;49.476;11.016;2023-02-28T10:38:01;99198.97;;;3.42;48.96
21300;BME280;10809;49.476;11.016;2023-02-28T10:40:51;99193.72;;;3.42;48.71
21300;BME280;10809;49.476;11.016;2023-02-28T10:43:22;99195.44;;;3.43;48.19
21300;BME280;10809;49.476;11.016;2023-02-28T10:48:47;99196.31;;;3.43;48.11
21300;BME280;10809;49.476;11.016;2023-02-28T10:51:40;99197.19;;;3.44;48.03
21300;BME280;10809;49.476;11.016;2023-02-28T10:54:37;99195.41;;;3.46;48.06
21300;BME280;10809;49.476;11.016;2023-02-28T10:57:20;99202.38;;;3.48;48.47
21300;BME280;10809;49.476;11.016;2023-02-28T11:00:12;99189.25;;;3.51;48.43
21300;BME280;10809;49.476;11.016;2023-02-28T11:02:43;99191.78;;;3.56;48.82
21300;BME280;10809;49.476;11.016;2023-02-28T11:05:32;99191.72;;;3.62;49.13
21300;BME280;10809;49.476;11.016;2023-02-28T11:08:10;99194.22;;;3.69;48.91
21300;BME280;10809;49.476;11.016;2023-02-28T11:11:08;99191.47;;;3.78;49.36
21300;BME280;10809;49.476;11.016;2023-02-28T11:13:53;99195.66;;;3.88;49.09
21300;BME280;10809;49.476;11.016;2023-02-28T11:16:37;99193.81;;;3.96;49.18
21300;BME280;10809;49.476;11.016;2023-02-28T11:19:19;99191.06;;;4.04;48.75
21300;BME280;10809;49.476;11.016;2023-02-28T11:22:08;99184.81;;;4.12;48.89
21300;BME280;10809;49.476;11.016;2023-02-28T11:24:55;99192.59;;;4.20;48.17
21300;BME280;10809;49.476;11.016;2023-02-28T11:30:04;99184.50;;;4.32;48.30
21300;BME280;10809;49.476;11.016;2023-02-28T11:32:48;99189.69;;;4.37;48.07
21300;BME280;10809;49.476;11.016;2023-02-28T11:35:30;99183.47;;;4.42;48.09
21300;BME280;10809;49.476;11.016;2023-02-28T11:38:02;99184.22;;;4.49;47.93
21300;BME280;10809;49.476;11.016;2023-02-28T11:51:34;99169.75;;;4.74;46.81
21300;BME280;10809;49.476;11.016;2023-02-28T11:54:28;99167.97;;;4.77;46.22
21300;BME280;10809;49.476;11.016;2023-02-28T11:57:18;99167.00;;;4.81;46.74
21300;BME280;10809;49.476;11.016;2023-02-28T12:05:51;99167.75;;;4.88;46.50
21300;BME280;10809;49.476;11.016;2023-02-28T12:08:32;99175.59;;;4.89;46.43
21300;BME280;10809;49.476;11.016;2023-02-28T12:27:44;99157.56;;;5.17;46.18
21300;BME280;10809;49.476;11.016;2023-02-28T12:30:27;99154.88;;;5.20;46.50
21300;BME280;10809;49.476;11.016;2023-02-28T12:33:08;99153.09;;;5.23;46.22
21300;BME280;10809;49.476;11.016;2023-02-28T12:35:57;99150.41;;;5.26;46.65
21300;BME280;10809;49.476;11.016;2023-02-28T12:38:39;99154.69;;;5.29;46.38
21300;BME280;10809;49.476;11.016;2023-02-28T12:41:19;99141.50;;;5.32;46.55
21300;BME280;10809;49.476;11.016;2023-02-28T12:44:15;99144.03;;;5.36;46.42
21300;BME280;10809;49.476;11.016;2023-02-28T12:47:02;99144.84;;;5.40;45.85
21300;BME280;10809;49.476;11.016;2023-02-28T12:52:19;99140.41;;;5.42;45.79
21300;BME280;10809;49.476;11.016;2023-02-28T12:55:05;99134.28;;;5.43;46.09
21300;BME280;10809;49.476;11.016;2023-02-28T13:07:04;99137.38;;;5.60;45.75
21300;BME280;10809;49.476;11.016;2023-02-28T13:09:39;99133.81;;;5.62;45.44
21300;BME280;10809;49.476;11.016;2023-02-28T13:12:16;99126.72;;;5.66;45.44
21300;BME280;10809;49.476;11.016;2023-02-28T13:14:46;99126.66;;;5.69;45.13
21300;BME280;10809;49.476;11.016;2023-02-28T13:17:21;99128.38;;;5.71;45.48
21300;BME280;10809;49.476;11.016;2023-02-28T13:24:56;99135.16;;;5.80;45.06
21300;BME280;10809;49.476;11.016;2023-02-28T13:27:38;99129.81;;;5.83;45.46
21300;BME280;10809;49.476;11.016;2023-02-28T13:33:29;99129.59;;;5.92;45.41
21300;BME280;10809;49.476;11.016;2023-02-28T13:36:09;99116.31;;;5.98;45.40
21300;BME280;10809;49.476;11.016;2023-02-28T13:41:40;99129.13;;;6.12;45.50
21300;BME280;10809;49.476;11.016;2023-02-28T13:54:59;99127.94;;;6.25;45.00
21300;BME280;10809;49.476;11.016;2023-02-28T13:57:51;99124.38;;;6.26;44.38
21300;BME280;10809;49.476;11.016;2023-02-28T14:00:51;99123.50;;;6.27;44.73
21300;BME280;10809;49.476;11.016;2023-02-28T14:06:26;99116.38;;;6.30;44.40
21300;BME280;10809;49.476;11.016;2023-02-28T14:09:35;99113.63;;;6.35;44.99
21300;BME280;10809;49.476;11.016;2023-02-28T14:18:26;99112.38;;;6.49;44.76
21300;BME280;10809;49.476;11.016;2023-02-28T14:21:20;99113.97;;;6.55;44.69
21300;BME280;10809;49.476;11.016;2023-02-28T14:24:03;99116.50;;;6.59;44.45
21300;BME280;10809;49.476;11.016;2023-02-28T14:26:58;99106.81;;;6.61;44.26
21300;BME280;10809;49.476;11.016;2023-02-28T14:32:47;99105.06;;;6.60;43.77
21300;BME280;10809;49.476;11.016;2023-02-28T14:37:56;99102.53;;;6.56;43.82
21300;BME280;10809;49.476;11.016;2023-02-28T14:40:32;99107.84;;;6.54;44.05
21300;BME280;10809;49.476;11.016;2023-02-28T14:43:06;99107.84;;;6.54;43.72
21300;BME280;10809;49.476;11.016;2023-02-28T14:45:37;99114.84;;;6.55;43.38
21300;BME280;10809;49.476;11.016;2023-02-28T14:48:09;99114.84;;;6.55;43.60
21300;BME280;10809;49.476;11.016;2023-02-28T14:50:49;99112.22;;;6.55;44.01
21300;BME280;10809;49.476;11.016;2023-02-28T14:53:21;99102.50;;;6.57;43.60
21300;BME280;10809;49.476;11.016;2023-02-28T14:55:55;99106.84;;;6.60;43.54
21300;BME280;10809;49.476;11.016;2023-02-28T15:01:02;99109.25;;;6.67;43.99
21300;BME280;10809;49.476;11.016;2023-02-28T15:03:36;99100.19;;;6.77;43.81
21300;BME280;10809;49.476;11.016;2023-02-28T15:06:15;99096.44;;;6.87;44.19
21300;BME280;10809;49.476;11.016;2023-02-28T15:08:46;99094.31;;;6.98;44.10
21300;BME280;10809;49.476;11.016;2023-02-28T15:11:18;99093.16;;;7.10;43.75
21300;BME280;10809;49.476;11.016;2023-02-28T15:13:53;99096.41;;;7.18;43.49
21300;BME280;10809;49.476;11.016;2023-02-28T15:16:41;99093.63;;;7.22;43.80
21300;BME280;10809;49.476;11.016;2023-02-28T15:19:29;99092.81;;;7.22;43.29
21300;BME280;10809;49.476;11.016;2023-02-28T15:22:16;99090.31;;;7.17;43.03
21300;BME280;10809;49.476;11.016;2023-02-28T15:24:52;99090.47;;;7.11;42.52
21300;BME280;10809;49.476;11.016;2023-02-28T15:27:35;99104.72;;;7.03;42.29
21300;BME280;10809;49.476;11.016;2023-02-28T15:30:27;99099.72;;;6.94;43.03
21300;BME280;10809;49.476;11.016;2023-02-28T15:35:44;99101.06;;;6.78;42.13
21300;BME280;10809;49.476;11.016;2023-02-28T15:38:46;99111.84;;;6.69;42.65
21300;BME280;10809;49.476;11.016;2023-02-28T15:41:35;99101.53;;;6.61;42.56
21300;BME280;10809;49.476;11.016;2023-02-28T15:44:27;99106.16;;;6.52;42.74
21300;BME280;10809;49.476;11.016;2023-02-28T15:47:02;99111.59;;;6.46;42.65
21300;BME280;10809;49.476;11.016;2023-02-28T15:49:58;99106.53;;;6.38;42.93
21300;BME280;10809;49.476;11.016;2023-02-28T15:52:45;99104.97;;;6.31;42.73
21300;BME280;10809;49.476;11.016;2023-02-28T15:55:21;99107.78;;;6.25;42.55
21300;BME280;10809;49.476;11.016;2023-02-28T15:57:54;99104.44;;;6.19;42.19
21300;BME280;10809;49.476;11.016;2023-02-28T16:00:28;99109.91;;;6.10;42.46
21300;BME280;10809;49.476;11.016;2023-02-28T16:02:59;99115.38;;;6.02;42.21
21300;BME280;10809;49.476;11.016;2023-02-28T16:05:32;99112.00;;;5.95;42.47
21300;BME280;10809;49.476;11.016;2023-02-28T16:08:15;99111.31;;;5.87;42.31
21300;BME280;10809;49.476;11.016;2023-02-28T16:10:52;99113.31;;;5.78;42.67
21300;BME280;10809;49.476;11.016;2023-02-28T16:13:29;99115.25;;;5.70;42.71
21300;BME280;10809;49.476;11.016;2023-02-28T16:16:00;99111.03;;;5.63;42.42
21300;BME280;10809;49.476;11.016;2023-02-28T16:18:32;99114.75;;;5.54;42.67
21300;BME280;10809;49.476;11.016;2023-02-28T16:21:03;99124.50;;;5.48;42.72
21300;BME280;10809;49.476;11.016;2023-02-28T16:23:33;99123.88;;;5.38;42.92
21300;BME280;10809;49.476;11.016;2023-02-28T16:26:04;99133.63;;;5.32;42.55